Terminal Aerodrome Forecast
Issued by NWS

Home | Current Version | Previous Version | Text Only | Print | Product List | Glossary On
Versions: 1 2 3 4 5 6 7 8 9 10 11 12 13 14 15 16 17 18 19 20 21 22 23
000
FTUS41 KPBZ 021010 AAA
TAFDUJ
TAF AMD
KDUJ 021010Z 0210/0306 36003KT P6SM BKN050
      TEMPO 0210/0212 2SM BR SCT002
     FM022100 30005KT P6SM SCT050=

USA.gov is the U.S. government's official web portal to all federal, state and local government web resources and services.